sensor_id;sensor_type;location;lat;lon;timestamp;pressure;altitude;pressure_sealevel;temperature;humidity
29385;BME280;16367;48.736;9.218;2023-07-09T00:00:22;-23873.53;;;22.43;70.70
29385;BME280;16367;48.736;9.218;2023-07-09T00:02:26;-23869.13;;;22.29;71.62
29385;BME280;16367;48.736;9.218;2023-07-09T00:04:29;-23868.50;;;22.27;71.78
29385;BME280;16367;48.736;9.218;2023-07-09T00:06:32;-23866.78;;;22.21;72.80
29385;BME280;16367;48.736;9.218;2023-07-09T00:08:33;-23868.50;;;22.27;72.81
29385;BME280;16367;48.736;9.218;2023-07-09T00:10:36;-23869.47;;;22.30;72.75
29385;BME280;16367;48.736;9.218;2023-07-09T00:12:40;-23868.50;;;22.27;71.79
29385;BME280;16367;48.736;9.218;2023-07-09T00:14:44;-23864.44;;;22.14;74.33
29385;BME280;16367;48.736;9.218;2023-07-09T00:16:50;-23863.34;;;22.10;73.70
29385;BME280;16367;48.736;9.218;2023-07-09T00:18:52;-23866.63;;;22.21;74.23
29385;BME280;16367;48.736;9.218;2023-07-09T00:20:55;-23871.34;;;22.36;73.14
29385;BME280;16367;48.736;9.218;2023-07-09T00:23:00;-23871.34;;;22.36;71.80
29385;BME280;16367;48.736;9.218;2023-07-09T00:25:09;-23867.59;;;22.24;73.52
29385;BME280;16367;48.736;9.218;2023-07-09T00:27:16;-23864.75;;;22.15;73.38
29385;BME280;16367;48.736;9.218;2023-07-09T00:29:21;-23858.03;;;21.93;74.88
29385;BME280;16367;48.736;9.218;2023-07-09T00:31:24;-23853.16;;;21.78;75.70
29385;BME280;16367;48.736;9.218;2023-07-09T00:33:27;-23854.72;;;21.83;75.10
29385;BME280;16367;48.736;9.218;2023-07-09T00:35:32;-23853.16;;;21.78;76.59
29385;BME280;16367;48.736;9.218;2023-07-09T00:37:35;-23853.94;;;21.80;76.34
29385;BME280;16367;48.736;9.218;2023-07-09T00:39:37;-23855.84;;;21.86;76.21
29385;BME280;16367;48.736;9.218;2023-07-09T00:41:42;-23851.91;;;21.74;76.48
29385;BME280;16367;48.736;9.218;2023-07-09T00:43:46;-23845.34;;;21.52;78.57
29385;BME280;16367;48.736;9.218;2023-07-09T00:46:13;-23844.09;;;21.48;78.97
29385;BME280;16367;48.736;9.218;2023-07-09T00:48:17;-23847.84;;;21.61;77.88
29385;BME280;16367;48.736;9.218;2023-07-09T00:50:29;-23847.38;;;21.59;78.67
29385;BME280;16367;48.736;9.218;2023-07-09T00:52:38;-23844.09;;;21.48;78.47
29385;BME280;16367;48.736;9.218;2023-07-09T00:54:43;-23843.75;;;21.47;79.05
29385;BME280;16367;48.736;9.218;2023-07-09T00:56:50;-23839.22;;;21.33;79.54
29385;BME280;16367;48.736;9.218;2023-07-09T00:58:57;-23842.66;;;21.44;79.71
29385;BME280;16367;48.736;9.218;2023-07-09T01:01:05;-23845.03;;;21.51;79.43
29385;BME280;16367;48.736;9.218;2023-07-09T01:03:19;-23845.34;;;21.52;79.65
29385;BME280;16367;48.736;9.218;2023-07-09T01:05:24;-23847.06;;;21.58;78.09
29385;BME280;16367;48.736;9.218;2023-07-09T01:07:27;-23847.22;;;21.59;79.01
29385;BME280;16367;48.736;9.218;2023-07-09T01:09:29;-23845.97;;;21.54;79.23
29385;BME280;16367;48.736;9.218;2023-07-09T01:11:32;-23847.06;;;21.58;78.73
29385;BME280;16367;48.736;9.218;2023-07-09T01:13:35;-23841.25;;;21.39;79.86
29385;BME280;16367;48.736;9.218;2023-07-09T01:15:41;-23842.03;;;21.42;79.90
29385;BME280;16367;48.736;9.218;2023-07-09T01:17:44;-23841.09;;;21.39;79.36
29385;BME280;16367;48.736;9.218;2023-07-09T01:19:50;-23842.50;;;21.43;79.31
29385;BME280;16367;48.736;9.218;2023-07-09T01:21:55;-23837.81;;;21.28;80.10
29385;BME280;16367;48.736;9.218;2023-07-09T01:24:11;-23838.59;;;21.31;81.28
29385;BME280;16367;48.736;9.218;2023-07-09T01:26:17;-23839.06;;;21.32;80.55
29385;BME280;16367;48.736;9.218;2023-07-09T01:28:20;-23840.63;;;21.37;80.48
29385;BME280;16367;48.736;9.218;2023-07-09T01:30:26;-23842.19;;;21.42;80.31
29385;BME280;16367;48.736;9.218;2023-07-09T01:32:30;-23841.72;;;21.41;80.12
29385;BME280;16367;48.736;9.218;2023-07-09T01:34:34;-23832.81;;;21.12;80.52
29385;BME280;16367;48.736;9.218;2023-07-09T01:36:37;-23837.66;;;21.28;79.56
29385;BME280;16367;48.736;9.218;2023-07-09T01:38:43;-23832.81;;;21.12;80.72
29385;BME280;16367;48.736;9.218;2023-07-09T01:40:46;-23834.06;;;21.16;80.97
29385;BME280;16367;48.736;9.218;2023-07-09T01:42:52;-23830.28;;;21.04;80.93
29385;BME280;16367;48.736;9.218;2023-07-09T01:44:55;-23827.63;;;20.96;81.87
29385;BME280;16367;48.736;9.218;2023-07-09T01:46:57;-23829.97;;;21.03;81.91
29385;BME280;16367;48.736;9.218;2023-07-09T01:48:59;-23829.19;;;21.01;82.19
29385;BME280;16367;48.736;9.218;2023-07-09T01:51:04;-23828.41;;;20.98;82.77
29385;BME280;16367;48.736;9.218;2023-07-09T01:53:07;-23827.78;;;20.96;82.33
29385;BME280;16367;48.736;9.218;2023-07-09T01:55:13;-23831.38;;;21.08;81.47
29385;BME280;16367;48.736;9.218;2023-07-09T01:57:20;-23829.97;;;21.03;82.18
29385;BME280;16367;48.736;9.218;2023-07-09T01:59:25;-23831.22;;;21.07;81.94
29385;BME280;16367;48.736;9.218;2023-07-09T02:01:29;-23825.13;;;20.88;84.06
29385;BME280;16367;48.736;9.218;2023-07-09T02:03:32;-23825.91;;;20.90;82.76
29385;BME280;16367;48.736;9.218;2023-07-09T02:05:35;-23830.75;;;21.06;82.08
29385;BME280;16367;48.736;9.218;2023-07-09T02:07:38;-23830.28;;;21.04;82.05
29385;BME280;16367;48.736;9.218;2023-07-09T02:09:40;-23829.19;;;21.01;82.72
29385;BME280;16367;48.736;9.218;2023-07-09T02:11:45;-23826.53;;;20.92;83.01
29385;BME280;16367;48.736;9.218;2023-07-09T02:13:47;-23827.31;;;20.95;83.69
29385;BME280;16367;48.736;9.218;2023-07-09T02:15:50;-23825.28;;;20.88;83.80
29385;BME280;16367;48.736;9.218;2023-07-09T02:17:53;-23828.41;;;20.98;82.88
29385;BME280;16367;48.736;9.218;2023-07-09T02:19:56;-23829.66;;;21.02;82.67
29385;BME280;16367;48.736;9.218;2023-07-09T02:21:58;-23826.06;;;20.91;82.90
29385;BME280;16367;48.736;9.218;2023-07-09T02:24:01;-23825.75;;;20.90;83.81
29385;BME280;16367;48.736;9.218;2023-07-09T02:26:05;-23824.94;;;20.87;83.48
29385;BME280;16367;48.736;9.218;2023-07-09T02:28:09;-23819.63;;;20.70;93.31
29385;BME280;16367;48.736;9.218;2023-07-09T02:30:12;-23822.13;;;20.78;83.81
29385;BME280;16367;48.736;9.218;2023-07-09T02:32:18;-23826.22;;;20.91;83.87
29385;BME280;16367;48.736;9.218;2023-07-09T02:34:21;-23823.06;;;20.81;83.33
29385;BME280;16367;48.736;9.218;2023-07-09T02:36:26;-23824.31;;;20.85;83.20
29385;BME280;16367;48.736;9.218;2023-07-09T02:38:32;-23827.16;;;20.94;82.30
29385;BME280;16367;48.736;9.218;2023-07-09T02:40:35;-23820.88;;;20.74;83.67
29385;BME280;16367;48.736;9.218;2023-07-09T02:42:38;-23819.94;;;20.71;84.44
29385;BME280;16367;48.736;9.218;2023-07-09T02:44:42;-23817.44;;;20.63;85.42
29385;BME280;16367;48.736;9.218;2023-07-09T02:46:45;-23815.72;;;20.57;86.56
29385;BME280;16367;48.736;9.218;2023-07-09T02:48:48;-23815.84;;;20.58;85.60
29385;BME280;16367;48.736;9.218;2023-07-09T02:50:51;-23817.28;;;20.62;86.02
29385;BME280;16367;48.736;9.218;2023-07-09T02:52:54;-23822.91;;;20.80;84.53
29385;BME280;16367;48.736;9.218;2023-07-09T02:54:57;-23817.91;;;20.64;84.37
29385;BME280;16367;48.736;9.218;2023-07-09T02:56:59;-23821.03;;;20.74;84.39
29385;BME280;16367;48.736;9.218;2023-07-09T02:59:02;-23821.97;;;20.77;84.04
29385;BME280;16367;48.736;9.218;2023-07-09T03:01:06;-23820.09;;;20.71;84.66
29385;BME280;16367;48.736;9.218;2023-07-09T03:03:09;-23819.31;;;20.69;84.37
29385;BME280;16367;48.736;9.218;2023-07-09T03:05:15;-23818.06;;;20.65;84.00
29385;BME280;16367;48.736;9.218;2023-07-09T03:07:17;-23820.72;;;20.73;83.89
29385;BME280;16367;48.736;9.218;2023-07-09T03:09:20;-23814.13;;;20.52;85.24
29385;BME280;16367;48.736;9.218;2023-07-09T03:11:23;-23814.13;;;20.52;85.68
29385;BME280;16367;48.736;9.218;2023-07-09T03:13:25;-23809.44;;;20.37;87.11
29385;BME280;16367;48.736;9.218;2023-07-09T03:15:28;-23807.53;;;20.31;87.81
29385;BME280;16367;48.736;9.218;2023-07-09T03:17:32;-23810.84;;;20.42;87.22
29385;BME280;16367;48.736;9.218;2023-07-09T03:19:34;-23808.50;;;20.34;87.73
29385;BME280;16367;48.736;9.218;2023-07-09T03:21:38;-23811.16;;;20.43;87.16
29385;BME280;16367;48.736;9.218;2023-07-09T03:23:41;-23813.19;;;20.49;86.58
29385;BME280;16367;48.736;9.218;2023-07-09T03:25:44;-23809.44;;;20.37;87.85
29385;BME280;16367;48.736;9.218;2023-07-09T03:27:47;-23808.66;;;20.35;88.30
29385;BME280;16367;48.736;9.218;2023-07-09T03:29:50;-23809.91;;;20.39;88.26
29385;BME280;16367;48.736;9.218;2023-07-09T03:31:53;-23810.22;;;20.40;87.82
29385;BME280;16367;48.736;9.218;2023-07-09T03:33:57;-23808.03;;;20.33;88.32
29385;BME280;16367;48.736;9.218;2023-07-09T03:35:59;-23808.81;;;20.35;88.29
29385;BME280;16367;48.736;9.218;2023-07-09T03:38:02;-23806.13;;;20.27;88.57
29385;BME280;16367;48.736;9.218;2023-07-09T03:40:06;-23802.38;;;20.15;89.11
29385;BME280;16367;48.736;9.218;2023-07-09T03:42:09;-23808.97;;;20.36;88.32
29385;BME280;16367;48.736;9.218;2023-07-09T03:44:13;-23813.19;;;20.49;87.19
29385;BME280;16367;48.736;9.218;2023-07-09T03:46:16;-23811.78;;;20.45;87.39
29385;BME280;16367;48.736;9.218;2023-07-09T03:48:19;-23804.56;;;20.22;89.03
29385;BME280;16367;48.736;9.218;2023-07-09T03:50:24;-23799.69;;;20.06;90.77
29385;BME280;16367;48.736;9.218;2023-07-09T03:52:26;-23799.53;;;20.05;90.65
29385;BME280;16367;48.736;9.218;2023-07-09T03:54:29;-23798.28;;;20.01;91.13
29385;BME280;16367;48.736;9.218;2023-07-09T03:56:32;-23797.03;;;19.97;91.23
29385;BME280;16367;48.736;9.218;2023-07-09T03:58:35;-23795.78;;;19.93;92.03
29385;BME280;16367;48.736;9.218;2023-07-09T04:00:38;-23800.00;;;20.07;91.67
29385;BME280;16367;48.736;9.218;2023-07-09T04:02:42;-23798.91;;;20.03;91.50
29385;BME280;16367;48.736;9.218;2023-07-09T04:04:46;-23795.78;;;19.93;92.41
29385;BME280;16367;48.736;9.218;2023-07-09T04:06:50;-23797.03;;;19.97;92.42
29385;BME280;16367;48.736;9.218;2023-07-09T04:08:53;-23797.50;;;19.99;92.28
29385;BME280;16367;48.736;9.218;2023-07-09T04:10:59;-23797.50;;;19.99;92.05
29385;BME280;16367;48.736;9.218;2023-07-09T04:13:01;-23800.94;;;20.10;91.54
29385;BME280;16367;48.736;9.218;2023-07-09T04:15:04;-23801.09;;;20.11;91.16
29385;BME280;16367;48.736;9.218;2023-07-09T04:17:09;-23805.34;;;20.24;90.35
29385;BME280;16367;48.736;9.218;2023-07-09T04:19:11;-23813.03;;;20.49;89.08
29385;BME280;16367;48.736;9.218;2023-07-09T04:21:14;-23834.22;;;21.17;85.12
29385;BME280;16367;48.736;9.218;2023-07-09T04:23:19;-23847.84;;;21.61;81.84
29385;BME280;16367;48.736;9.218;2023-07-09T04:25:22;-23863.97;;;22.12;78.20
29385;BME280;16367;48.736;9.218;2023-07-09T04:27:24;-23885.41;;;22.81;74.54
29385;BME280;16367;48.736;9.218;2023-07-09T04:29:28;-23895.28;;;23.13;72.54
29385;BME280;16367;48.736;9.218;2023-07-09T04:31:31;-23912.47;;;23.68;69.49
29385;BME280;16367;48.736;9.218;2023-07-09T04:33:34;-23909.66;;;23.59;69.46
29385;BME280;16367;48.736;9.218;2023-07-09T04:35:37;-23900.28;;;23.29;71.94
29385;BME280;16367;48.736;9.218;2023-07-09T04:37:40;-23891.69;;;23.02;71.92
29385;BME280;16367;48.736;9.218;2023-07-09T04:39:45;-23898.72;;;23.24;72.18
29385;BME280;16367;48.736;9.218;2023-07-09T04:41:48;-23905.28;;;23.45;70.43
29385;BME280;16367;48.736;9.218;2023-07-09T04:43:51;-23909.19;;;23.58;70.47
29385;BME280;16367;48.736;9.218;2023-07-09T04:45:54;-23898.56;;;23.24;70.87
29385;BME280;16367;48.736;9.218;2023-07-09T04:47:57;-23913.25;;;23.71;69.05
29385;BME280;16367;48.736;9.218;2023-07-09T04:49:59;-23909.19;;;23.58;68.71
29385;BME280;16367;48.736;9.218;2023-07-09T04:52:03;-23930.28;;;24.26;66.83
29385;BME280;16367;48.736;9.218;2023-07-09T04:54:05;-23929.19;;;24.22;65.87
29385;BME280;16367;48.736;9.218;2023-07-09T04:56:09;-23937.94;;;24.51;65.72
29385;BME280;16367;48.736;9.218;2023-07-09T04:58:13;-23950.75;;;24.92;64.18
29385;BME280;16367;48.736;9.218;2023-07-09T05:00:16;-23939.50;;;24.56;65.60
29385;BME280;16367;48.736;9.218;2023-07-09T05:02:18;-23942.63;;;24.66;64.72
29385;BME280;16367;48.736;9.218;2023-07-09T05:04:21;-23927.94;;;24.18;67.53
29385;BME280;16367;48.736;9.218;2023-07-09T05:06:23;-23904.19;;;23.42;71.11
29385;BME280;16367;48.736;9.218;2023-07-09T05:08:26;-23913.25;;;23.71;70.09
29385;BME280;16367;48.736;9.218;2023-07-09T05:10:28;-23918.88;;;23.89;69.46
29385;BME280;16367;48.736;9.218;2023-07-09T05:12:33;-23917.00;;;23.83;69.01
29385;BME280;16367;48.736;9.218;2023-07-09T05:14:35;-23926.53;;;24.14;67.85
29385;BME280;16367;48.736;9.218;2023-07-09T05:16:38;-23919.03;;;23.90;69.52
29385;BME280;16367;48.736;9.218;2023-07-09T05:18:41;-23956.84;;;25.11;64.70
29385;BME280;16367;48.736;9.218;2023-07-09T05:20:47;-23948.25;;;24.84;63.46
29385;BME280;16367;48.736;9.218;2023-07-09T05:22:49;-23915.13;;;23.77;67.09
29385;BME280;16367;48.736;9.218;2023-07-09T05:24:52;-23904.50;;;23.43;69.45
29385;BME280;16367;48.736;9.218;2023-07-09T05:26:55;-23941.69;;;24.63;66.02
29385;BME280;16367;48.736;9.218;2023-07-09T05:28:59;-23939.50;;;24.56;64.77
29385;BME280;16367;48.736;9.218;2023-07-09T05:31:02;-23939.03;;;24.54;64.99
29385;BME280;16367;48.736;9.218;2023-07-09T05:33:04;-23958.56;;;25.17;62.86
29385;BME280;16367;48.736;9.218;2023-07-09T05:35:07;-23929.66;;;24.24;66.54
29385;BME280;16367;48.736;9.218;2023-07-09T05:37:10;-23945.59;;;24.75;64.28
29385;BME280;16367;48.736;9.218;2023-07-09T05:39:13;-23937.31;;;24.49;64.97
29385;BME280;16367;48.736;9.218;2023-07-09T05:41:16;-23936.84;;;24.47;66.01
29385;BME280;16367;48.736;9.218;2023-07-09T05:43:19;-23922.31;;;24.00;67.94
29385;BME280;16367;48.736;9.218;2023-07-09T05:45:23;-23924.22;;;24.06;68.24
29385;BME280;16367;48.736;9.218;2023-07-09T05:47:26;-23917.63;;;23.85;68.65
29385;BME280;16367;48.736;9.218;2023-07-09T05:49:29;-23931.69;;;24.30;67.58
29385;BME280;16367;48.736;9.218;2023-07-09T05:51:32;-23914.81;;;23.76;69.08
29385;BME280;16367;48.736;9.218;2023-07-09T05:53:35;-23919.19;;;23.90;69.99
29385;BME280;16367;48.736;9.218;2023-07-09T05:55:37;-23931.69;;;24.30;68.14
29385;BME280;16367;48.736;9.218;2023-07-09T05:57:40;-23916.84;;;23.83;70.43
29385;BME280;16367;48.736;9.218;2023-07-09T05:59:43;-23912.63;;;23.69;71.13
29385;BME280;16367;48.736;9.218;2023-07-09T06:01:47;-23913.25;;;23.71;70.49
29385;BME280;16367;48.736;9.218;2023-07-09T06:03:50;-23908.25;;;23.55;71.55
29385;BME280;16367;48.736;9.218;2023-07-09T06:05:53;-23922.63;;;24.01;nan
29385;BME280;16367;48.736;9.218;2023-07-09T06:07:55;-23925.13;;;24.09;69.36
29385;BME280;16367;48.736;9.218;2023-07-09T06:09:58;-23936.69;;;24.47;67.76
29385;BME280;16367;48.736;9.218;2023-07-09T06:12:00;-23934.81;;;24.40;66.41
29385;BME280;16367;48.736;9.218;2023-07-09T06:14:02;-23929.19;;;24.22;67.66
29385;BME280;16367;48.736;9.218;2023-07-09T06:16:05;-23946.06;;;24.77;65.91
29385;BME280;16367;48.736;9.218;2023-07-09T06:18:09;-23943.72;;;24.69;65.58
29385;BME280;16367;48.736;9.218;2023-07-09T06:20:12;-23946.06;;;24.77;65.76
29385;BME280;16367;48.736;9.218;2023-07-09T06:22:15;-23950.59;;;24.91;64.20
29385;BME280;16367;48.736;9.218;2023-07-09T06:24:18;-23967.59;;;25.46;62.23
29385;BME280;16367;48.736;9.218;2023-07-09T06:26:21;-23979.78;;;25.85;60.97
29385;BME280;16367;48.736;9.218;2023-07-09T06:28:26;-23976.66;;;25.75;61.53
29385;BME280;16367;48.736;9.218;2023-07-09T06:30:30;-24000.19;;;26.51;59.10
29385;BME280;16367;48.736;9.218;2023-07-09T06:32:33;-24010.63;;;26.85;56.54
29385;BME280;16367;48.736;9.218;2023-07-09T06:34:37;-24007.50;;;26.75;58.06
29385;BME280;16367;48.736;9.218;2023-07-09T06:36:40;-24003.63;;;26.63;57.16
29385;BME280;16367;48.736;9.218;2023-07-09T06:38:45;-23999.09;;;26.48;58.38
29385;BME280;16367;48.736;9.218;2023-07-09T06:40:51;-23998.78;;;26.47;58.28
29385;BME280;16367;48.736;9.218;2023-07-09T06:42:54;-23994.72;;;26.34;58.93
29385;BME280;16367;48.736;9.218;2023-07-09T06:44:56;-23983.34;;;25.97;59.79
29385;BME280;16367;48.736;9.218;2023-07-09T06:46:59;-23998.47;;;26.46;58.96
29385;BME280;16367;48.736;9.218;2023-07-09T06:49:03;-24012.50;;;26.91;58.00
29385;BME280;16367;48.736;9.218;2023-07-09T06:51:08;-24014.97;;;26.99;56.87
29385;BME280;16367;48.736;9.218;2023-07-09T06:53:10;-24012.50;;;26.91;57.16
29385;BME280;16367;48.736;9.218;2023-07-09T06:55:12;-24004.69;;;26.66;57.38
29385;BME280;16367;48.736;9.218;2023-07-09T06:57:15;-24018.88;;;27.12;57.02
29385;BME280;16367;48.736;9.218;2023-07-09T06:59:21;-24030.72;;;27.50;56.78
29385;BME280;16367;48.736;9.218;2023-07-09T07:01:24;-24025.25;;;27.32;56.92
29385;BME280;16367;48.736;9.218;2023-07-09T07:03:26;-24050.31;;;28.14;55.44
29385;BME280;16367;48.736;9.218;2023-07-09T07:05:31;-24075.00;;;28.94;53.08
29385;BME280;16367;48.736;9.218;2023-07-09T07:07:35;-24107.78;;;30.00;50.75
29385;BME280;16367;48.736;9.218;2023-07-09T07:09:38;-24067.88;;;28.70;53.27
29385;BME280;16367;48.736;9.218;2023-07-09T07:11:41;-24082.47;;;29.18;52.08
29385;BME280;16367;48.736;9.218;2023-07-09T07:13:43;-24110.88;;;30.10;50.51
29385;BME280;16367;48.736;9.218;2023-07-09T07:15:48;-24087.13;;;29.33;51.26
29385;BME280;16367;48.736;9.218;2023-07-09T07:17:51;-24096.13;;;29.62;49.63
29385;BME280;16367;48.736;9.218;2023-07-09T07:19:54;-24101.72;;;29.80;49.29
29385;BME280;16367;48.736;9.218;2023-07-09T07:21:57;-24109.16;;;30.04;48.48
29385;BME280;16367;48.736;9.218;2023-07-09T07:24:01;-24100.00;;;29.75;48.54
29385;BME280;16367;48.736;9.218;2023-07-09T07:26:05;-24128.09;;;30.66;47.83
29385;BME280;16367;48.736;9.218;2023-07-09T07:28:08;-24147.75;;;31.30;46.29
29385;BME280;16367;48.736;9.218;2023-07-09T07:30:11;-24185.97;;;32.54;43.30
29385;BME280;16367;48.736;9.218;2023-07-09T07:32:14;-24167.88;;;31.95;43.71
29385;BME280;16367;48.736;9.218;2023-07-09T07:34:16;-24194.34;;;32.81;42.67
29385;BME280;16367;48.736;9.218;2023-07-09T07:36:21;-24154.41;;;31.51;44.74
29385;BME280;16367;48.736;9.218;2023-07-09T07:38:32;-24149.16;;;31.34;45.77
29385;BME280;16367;48.736;9.218;2023-07-09T07:40:36;-24189.69;;;32.66;43.08
29385;BME280;16367;48.736;9.218;2023-07-09T07:42:39;-24195.09;;;32.84;42.56
29385;BME280;16367;48.736;9.218;2023-07-09T07:44:42;-24136.59;;;30.93;47.25
29385;BME280;16367;48.736;9.218;2023-07-09T07:46:44;-24187.53;;;32.59;43.45
29385;BME280;16367;48.736;9.218;2023-07-09T07:48:47;-24162.16;;;31.77;44.23
29385;BME280;16367;48.736;9.218;2023-07-09T07:50:51;-24223.06;;;33.75;41.08
29385;BME280;16367;48.736;9.218;2023-07-09T07:52:53;-24196.81;;;32.89;40.96
29385;BME280;16367;48.736;9.218;2023-07-09T07:54:57;-24198.66;;;32.95;41.81
29385;BME280;16367;48.736;9.218;2023-07-09T07:57:01;-24222.13;;;33.72;40.17
29385;BME280;16367;48.736;9.218;2023-07-09T07:59:04;-24210.69;;;33.35;40.64
29385;BME280;16367;48.736;9.218;2023-07-09T08:01:07;-24215.34;;;33.50;41.26
29385;BME280;16367;48.736;9.218;2023-07-09T08:03:11;-24236.31;;;34.18;38.63
29385;BME280;16367;48.736;9.218;2023-07-09T08:05:14;-24227.06;;;33.88;39.33
29385;BME280;16367;48.736;9.218;2023-07-09T08:07:18;-24191.84;;;32.73;41.31
29385;BME280;16367;48.736;9.218;2023-07-09T08:09:21;-24234.63;;;34.13;38.50
29385;BME280;16367;48.736;9.218;2023-07-09T08:11:24;-24265.94;;;35.15;37.09
29385;BME280;16367;48.736;9.218;2023-07-09T08:13:30;-24232.63;;;34.06;39.07
29385;BME280;16367;48.736;9.218;2023-07-09T08:15:34;-24207.00;;;33.23;40.48
29385;BME280;16367;48.736;9.218;2023-07-09T08:17:36;-24262.38;;;35.03;37.43
29385;BME280;16367;48.736;9.218;2023-07-09T08:19:47;-24233.56;;;34.09;37.82
29385;BME280;16367;48.736;9.218;2023-07-09T08:21:50;-24269.00;;;35.25;36.13
29385;BME280;16367;48.736;9.218;2023-07-09T08:23:52;-24248.50;;;34.58;37.05
29385;BME280;16367;48.736;9.218;2023-07-09T08:25:54;-24253.28;;;34.74;35.54
29385;BME280;16367;48.736;9.218;2023-07-09T08:27:57;-24256.53;;;34.84;35.88
29385;BME280;16367;48.736;9.218;2023-07-09T08:30:01;-24256.38;;;34.84;35.19
29385;BME280;16367;48.736;9.218;2023-07-09T08:32:05;-24283.19;;;35.71;34.48
29385;BME280;16367;48.736;9.218;2023-07-09T08:34:08;-24278.56;;;35.56;35.02
29385;BME280;16367;48.736;9.218;2023-07-09T08:36:11;-24266.25;;;35.16;35.90
29385;BME280;16367;48.736;9.218;2023-07-09T08:38:14;-24262.53;;;35.04;36.82
29385;BME280;16367;48.736;9.218;2023-07-09T08:40:17;-24287.19;;;35.84;34.67
29385;BME280;16367;48.736;9.218;2023-07-09T08:42:26;-24303.34;;;36.37;33.53
29385;BME280;16367;48.736;9.218;2023-07-09T08:44:42;-24231.69;;;34.03;36.84
29385;BME280;16367;48.736;9.218;2023-07-09T08:46:57;-24278.41;;;35.56;33.57
29385;BME280;16367;48.736;9.218;2023-07-09T08:49:03;-24265.63;;;35.14;34.53
29385;BME280;16367;48.736;9.218;2023-07-09T08:51:18;-24228.31;;;33.92;35.72
29385;BME280;16367;48.736;9.218;2023-07-09T08:53:31;-24212.88;;;33.42;36.57
29385;BME280;16367;48.736;9.218;2023-07-09T08:55:35;-24263.00;;;35.05;34.25
29385;BME280;16367;48.736;9.218;2023-07-09T08:57:44;-24284.41;;;35.75;33.36
29385;BME280;16367;48.736;9.218;2023-07-09T08:59:51;-24312.88;;;36.69;31.94
29385;BME280;16367;48.736;9.218;2023-07-09T09:01:59;-24285.34;;;35.78;32.26
29385;BME280;16367;48.736;9.218;2023-07-09T09:04:13;-24282.25;;;35.68;32.90
29385;BME280;16367;48.736;9.218;2023-07-09T09:06:20;-24293.50;;;36.05;32.90
29385;BME280;16367;48.736;9.218;2023-07-09T09:08:33;-24292.72;;;36.03;33.21
29385;BME280;16367;48.736;9.218;2023-07-09T09:10:44;-24315.47;;;36.77;32.14
29385;BME280;16367;48.736;9.218;2023-07-09T09:12:58;-24302.56;;;36.35;32.39
29385;BME280;16367;48.736;9.218;2023-07-09T09:15:04;-24332.38;;;37.32;31.25
29385;BME280;16367;48.736;9.218;2023-07-09T09:17:16;-24340.81;;;37.60;31.27
29385;BME280;16367;48.736;9.218;2023-07-09T09:19:23;-24257.91;;;34.89;33.74
29385;BME280;16367;48.736;9.218;2023-07-09T09:21:31;-24290.56;;;35.96;33.24
29385;BME280;16367;48.736;9.218;2023-07-09T09:23:38;-24318.41;;;36.87;32.29
29385;BME280;16367;48.736;9.218;2023-07-09T09:25:45;-24238.66;;;34.26;35.01
29385;BME280;16367;48.736;9.218;2023-07-09T09:28:05;-24312.09;;;36.66;32.15
29385;BME280;16367;48.736;9.218;2023-07-09T09:30:11;-24320.41;;;36.93;31.49
29385;BME280;16367;48.736;9.218;2023-07-09T09:32:22;-24320.41;;;36.93;30.46
29385;BME280;16367;48.736;9.218;2023-07-09T09:34:28;-24331.78;;;37.30;30.15
29385;BME280;16367;48.736;9.218;2023-07-09T09:36:36;-24317.78;;;36.85;30.46
29385;BME280;16367;48.736;9.218;2023-07-09T09:38:39;-24335.31;;;37.42;29.19
29385;BME280;16367;48.736;9.218;2023-07-09T09:40:42;-24307.03;;;36.49;30.71
29385;BME280;16367;48.736;9.218;2023-07-09T09:42:44;-24291.50;;;35.99;31.19
29385;BME280;16367;48.736;9.218;2023-07-09T09:44:53;-24342.69;;;37.66;29.73
29385;BME280;16367;48.736;9.218;2023-07-09T09:46:57;-24323.31;;;37.03;29.74
29385;BME280;16367;48.736;9.218;2023-07-09T09:49:03;-24328.69;;;37.20;30.34
29385;BME280;16367;48.736;9.218;2023-07-09T09:51:06;-24298.56;;;36.22;31.53
29385;BME280;16367;48.736;9.218;2023-07-09T09:53:09;-24310.09;;;36.59;30.65
29385;BME280;16367;48.736;9.218;2023-07-09T09:55:18;-24322.25;;;36.99;30.62
29385;BME280;16367;48.736;9.218;2023-07-09T09:57:23;-24327.78;;;37.17;30.00
29385;BME280;16367;48.736;9.218;2023-07-09T09:59:29;-24303.34;;;36.37;29.30
29385;BME280;16367;48.736;9.218;2023-07-09T10:01:34;-24336.06;;;37.45;29.69
29385;BME280;16367;48.736;9.218;2023-07-09T10:03:38;-24349.72;;;37.89;28.59
29385;BME280;16367;48.736;9.218;2023-07-09T10:05:52;-24366.44;;;38.44;28.42
29385;BME280;16367;48.736;9.218;2023-07-09T10:08:00;-24318.25;;;36.86;29.80
29385;BME280;16367;48.736;9.218;2023-07-09T10:10:11;-24372.13;;;38.63;28.02
29385;BME280;16367;48.736;9.218;2023-07-09T10:12:28;-24334.38;;;37.39;29.52
29385;BME280;16367;48.736;9.218;2023-07-09T10:14:39;-24350.19;;;37.91;28.63
29385;BME280;16367;48.736;9.218;2023-07-09T10:16:51;-24350.81;;;37.93;27.71
29385;BME280;16367;48.736;9.218;2023-07-09T10:19:02;-24316.88;;;36.82;29.34
29385;BME280;16367;48.736;9.218;2023-07-09T10:21:14;-24352.03;;;37.97;28.27
29385;BME280;16367;48.736;9.218;2023-07-09T10:23:25;-24348.06;;;37.84;26.43
29385;BME280;16367;48.736;9.218;2023-07-09T10:25:34;-24346.66;;;37.79;26.19
29385;BME280;16367;48.736;9.218;2023-07-09T10:27:46;-24283.50;;;35.72;28.47
29385;BME280;16367;48.736;9.218;2023-07-09T10:30:11;-24275.78;;;35.47;28.62
29385;BME280;16367;48.736;9.218;2023-07-09T10:32:36;-24288.09;;;35.87;27.79
29385;BME280;16367;48.736;9.218;2023-07-09T10:34:46;-24289.34;;;35.91;27.99
29385;BME280;16367;48.736;9.218;2023-07-09T10:37:13;-24272.41;;;35.36;28.49
29385;BME280;16367;48.736;9.218;2023-07-09T10:39:24;-24281.03;;;35.64;28.62
29385;BME280;16367;48.736;9.218;2023-07-09T10:41:30;-24232.63;;;34.06;31.00
29385;BME280;16367;48.736;9.218;2023-07-09T10:43:37;-24251.44;;;34.68;30.20
29385;BME280;16367;48.736;9.218;2023-07-09T10:45:44;-24241.56;;;34.35;30.64
29385;BME280;16367;48.736;9.218;2023-07-09T10:47:53;-24244.19;;;34.44;30.75
29385;BME280;16367;48.736;9.218;2023-07-09T10:49:58;-24250.97;;;34.66;30.36
29385;BME280;16367;48.736;9.218;2023-07-09T10:52:07;-24248.97;;;34.60;29.50